Meteo Giornale » Osservazioni meteo Italia » Udine-Rivolto

ore: 05:55 - Osservazioni Meteo Udine-Rivolto
Lat. 45° 59' N Lon. 13° 2' E Alt. 51 metri s.l.m.

nuvoloso Europe/Rome

21 °C

Nuvoloso

Temp. 24 Ore

19 °C

30 °C

Nord

9.3 Km/h

Dew point 17 °C

Umidità 77 %

Visibilità  10 Km

Il sole sorge alle ore 06:09

Il sole tramonta alle ore 20:13

Data e Ora Cielo e Fenomeni T °C DP °C Um. % Pres. hPa Vis. km Vento km/h
Oggi h: 05:55 nuvoloso Nuvoloso 21 17 77 1011 10 N 9.3
Oggi h: 04:55 nuvoloso Nuvoloso 21 17 77 1012 10 N 7.4
Oggi h: 03:55 sereno Sereno 21 18 82 1011 10 N/NO 9.3
Oggi h: 02:55 sereno Sereno 21 18 82 1012 10 N 5.5
Oggi h: 01:55 sereno Sereno 21 20 94 1012 10 N 3.7
Oggi h: 00:55 nuvoloso Nuvoloso 22 19 83 1012 10 N 3.7
Ieri h: 23:55 nuvoloso Nuvoloso 23 21 88 1012 10 N 5.5
Ieri h: 22:55 coperto_pioggia Pioggia Debole 24 21 83 1013 10 N 5.5
Ieri h: 21:55 sereno Sereno 24 20 78 1014 10 S/SO 11.1
Ieri h: 20:55 sereno Sereno 25 19 69 1012 10 S/SO 11.1
Ieri h: 19:55 sereno Sereno 26 19 65 1011 10 S 7.4
Ieri h: 18:55 poco_nuvoloso Poco Nuvoloso 27 17 54 1011 10 S/SE 7.4
Ieri h: 17:55 poco_nuvoloso Poco Nuvoloso 28 18 54 1012 10 SE 13
Ieri h: 16:55 nuvoloso Nuvoloso 30 19 51 1012 10 S 11.1
Ieri h: 15:55 nuvoloso Nuvoloso 29 18 51 1012 10 S 7.4
Ieri h: 14:55 nuvoloso Nuvoloso 29 17 48 1013 10 SE 9.3
Ieri h: 13:55 nuvoloso Nuvoloso 29 17 48 1013 10 S/SE 9.3
Ieri h: 12:55 nuvoloso Nuvoloso 28 17 51 1013 10 S/SO 7.4
Ieri h: 11:55 nuvoloso Nuvoloso 27 18 57 1013 10 S 11.1
Ieri h: 10:55 nuvoloso Nuvoloso 25 18 65 1013 10 SE 9.3
Ieri h: 09:55 nuvoloso Nuvoloso 25 18 65 1013 10 N 3.7
Ieri h: 08:55 nuvoloso Nuvoloso 24 16 60 1013 10 N 3.7
Ieri h: 07:55 nuvoloso Nuvoloso 21 16 73 1013 10 N 7.4
Ieri h: 07:10 poco_nuvoloso Poco Nuvoloso 20 16 77 1013 10 N 5.5
Ieri h: 06:55 molto_nuvoloso Molto Nuvoloso 19 15 77 1013 10 N/NO 7.4